sensor_id;sensor_type;location;lat;lon;timestamp;temperature;humidity
22450;DHT22;11392;57.390;-2.468;2023-06-22T00:00:13;14.50;99.90
22450;DHT22;11392;57.390;-2.468;2023-06-22T00:02:40;14.50;99.90
22450;DHT22;11392;57.390;-2.468;2023-06-22T00:05:07;14.40;99.90
22450;DHT22;11392;57.390;-2.468;2023-06-22T00:07:34;14.40;99.90
22450;DHT22;11392;57.390;-2.468;2023-06-22T00:10:01;14.40;99.90
22450;DHT22;11392;57.390;-2.468;2023-06-22T00:12:28;14.40;99.90
22450;DHT22;11392;57.390;-2.468;2023-06-22T00:14:55;14.40;99.90
22450;DHT22;11392;57.390;-2.468;2023-06-22T00:17:22;14.50;99.90
22450;DHT22;11392;57.390;-2.468;2023-06-22T00:19:49;14.50;99.90
22450;DHT22;11392;57.390;-2.468;2023-06-22T00:22:20;14.60;99.90
22450;DHT22;11392;57.390;-2.468;2023-06-22T00:24:56;14.50;99.90
22450;DHT22;11392;57.390;-2.468;2023-06-22T00:27:23;14.50;99.90
22450;DHT22;11392;57.390;-2.468;2023-06-22T00:29:50;14.40;99.90
22450;DHT22;11392;57.390;-2.468;2023-06-22T00:32:17;14.30;99.90
22450;DHT22;11392;57.390;-2.468;2023-06-22T00:34:45;14.30;99.90
22450;DHT22;11392;57.390;-2.468;2023-06-22T00:37:12;14.40;99.90
22450;DHT22;11392;57.390;-2.468;2023-06-22T00:39:39;14.40;99.90
22450;DHT22;11392;57.390;-2.468;2023-06-22T00:42:06;14.40;99.90
22450;DHT22;11392;57.390;-2.468;2023-06-22T00:44:33;14.30;99.90
22450;DHT22;11392;57.390;-2.468;2023-06-22T00:47:00;14.20;99.90
22450;DHT22;11392;57.390;-2.468;2023-06-22T00:49:28;14.00;99.90
22450;DHT22;11392;57.390;-2.468;2023-06-22T00:51:57;13.80;99.90
22450;DHT22;11392;57.390;-2.468;2023-06-22T00:54:24;13.70;99.90
22450;DHT22;11392;57.390;-2.468;2023-06-22T00:56:53;13.70;99.90
22450;DHT22;11392;57.390;-2.468;2023-06-22T00:59:23;13.80;99.90
22450;DHT22;11392;57.390;-2.468;2023-06-22T01:01:51;13.80;99.90
22450;DHT22;11392;57.390;-2.468;2023-06-22T01:04:18;13.80;99.90
22450;DHT22;11392;57.390;-2.468;2023-06-22T01:06:54;13.80;99.90
22450;DHT22;11392;57.390;-2.468;2023-06-22T01:09:31;13.80;99.90
22450;DHT22;11392;57.390;-2.468;2023-06-22T01:12:02;13.90;99.90
22450;DHT22;11392;57.390;-2.468;2023-06-22T01:14:42;14.00;99.90
22450;DHT22;11392;57.390;-2.468;2023-06-22T01:17:12;14.10;99.90
22450;DHT22;11392;57.390;-2.468;2023-06-22T01:19:49;14.10;99.90
22450;DHT22;11392;57.390;-2.468;2023-06-22T01:22:30;14.00;99.90
22450;DHT22;11392;57.390;-2.468;2023-06-22T01:25:13;14.00;99.90
22450;DHT22;11392;57.390;-2.468;2023-06-22T01:28:20;14.10;99.90
22450;DHT22;11392;57.390;-2.468;2023-06-22T01:30:49;14.10;99.90
22450;DHT22;11392;57.390;-2.468;2023-06-22T01:33:27;14.20;99.90
22450;DHT22;11392;57.390;-2.468;2023-06-22T01:35:54;14.20;99.90
22450;DHT22;11392;57.390;-2.468;2023-06-22T01:38:21;14.10;99.90
22450;DHT22;11392;57.390;-2.468;2023-06-22T01:40:50;14.00;99.90
22450;DHT22;11392;57.390;-2.468;2023-06-22T01:43:18;14.00;99.90
22450;DHT22;11392;57.390;-2.468;2023-06-22T01:45:46;14.00;99.90
22450;DHT22;11392;57.390;-2.468;2023-06-22T01:48:13;14.10;99.90
22450;DHT22;11392;57.390;-2.468;2023-06-22T01:50:40;14.10;99.90
22450;DHT22;11392;57.390;-2.468;2023-06-22T01:53:07;14.10;99.90
22450;DHT22;11392;57.390;-2.468;2023-06-22T01:55:34;14.10;99.90
22450;DHT22;11392;57.390;-2.468;2023-06-22T01:58:01;14.20;99.90
22450;DHT22;11392;57.390;-2.468;2023-06-22T02:00:32;14.10;99.90
22450;DHT22;11392;57.390;-2.468;2023-06-22T02:03:05;14.10;99.90
22450;DHT22;11392;57.390;-2.468;2023-06-22T02:05:52;13.90;99.90
22450;DHT22;11392;57.390;-2.468;2023-06-22T02:08:41;13.90;99.90
22450;DHT22;11392;57.390;-2.468;2023-06-22T02:11:10;13.90;99.90
22450;DHT22;11392;57.390;-2.468;2023-06-22T02:13:39;13.90;99.90
22450;DHT22;11392;57.390;-2.468;2023-06-22T02:16:11;13.90;99.90
22450;DHT22;11392;57.390;-2.468;2023-06-22T02:18:39;13.90;99.90
22450;DHT22;11392;57.390;-2.468;2023-06-22T02:21:07;13.80;99.90
22450;DHT22;11392;57.390;-2.468;2023-06-22T02:23:34;13.70;99.90
22450;DHT22;11392;57.390;-2.468;2023-06-22T02:26:03;13.50;99.90
22450;DHT22;11392;57.390;-2.468;2023-06-22T02:28:30;13.50;99.90
22450;DHT22;11392;57.390;-2.468;2023-06-22T02:30:57;13.40;99.90
22450;DHT22;11392;57.390;-2.468;2023-06-22T02:33:24;13.40;99.90
22450;DHT22;11392;57.390;-2.468;2023-06-22T02:35:51;13.30;99.90
22450;DHT22;11392;57.390;-2.468;2023-06-22T02:38:18;13.20;99.90
22450;DHT22;11392;57.390;-2.468;2023-06-22T02:40:46;13.20;99.90
22450;DHT22;11392;57.390;-2.468;2023-06-22T02:43:13;13.10;99.90
22450;DHT22;11392;57.390;-2.468;2023-06-22T02:45:41;13.10;99.90
22450;DHT22;11392;57.390;-2.468;2023-06-22T02:48:08;13.10;99.90
22450;DHT22;11392;57.390;-2.468;2023-06-22T02:50:35;13.00;99.90
22450;DHT22;11392;57.390;-2.468;2023-06-22T02:53:02;12.90;99.90
22450;DHT22;11392;57.390;-2.468;2023-06-22T02:55:29;12.80;99.90
22450;DHT22;11392;57.390;-2.468;2023-06-22T02:57:57;12.70;99.90
22450;DHT22;11392;57.390;-2.468;2023-06-22T03:00:26;12.60;99.90
22450;DHT22;11392;57.390;-2.468;2023-06-22T03:02:58;12.60;99.90
22450;DHT22;11392;57.390;-2.468;2023-06-22T03:05:25;12.60;99.90
22450;DHT22;11392;57.390;-2.468;2023-06-22T03:07:52;12.70;99.90
22450;DHT22;11392;57.390;-2.468;2023-06-22T03:10:20;12.60;99.90
22450;DHT22;11392;57.390;-2.468;2023-06-22T03:12:47;12.50;99.90
22450;DHT22;11392;57.390;-2.468;2023-06-22T03:15:14;12.50;99.90
22450;DHT22;11392;57.390;-2.468;2023-06-22T03:17:41;12.30;99.90
22450;DHT22;11392;57.390;-2.468;2023-06-22T03:20:09;12.30;99.90
22450;DHT22;11392;57.390;-2.468;2023-06-22T03:22:41;12.30;99.90
22450;DHT22;11392;57.390;-2.468;2023-06-22T03:25:09;12.20;99.90
22450;DHT22;11392;57.390;-2.468;2023-06-22T03:27:37;12.20;99.90
22450;DHT22;11392;57.390;-2.468;2023-06-22T03:30:05;12.20;99.90
22450;DHT22;11392;57.390;-2.468;2023-06-22T03:32:32;12.20;99.90
22450;DHT22;11392;57.390;-2.468;2023-06-22T03:34:59;12.10;99.90
22450;DHT22;11392;57.390;-2.468;2023-06-22T03:37:27;12.00;99.90
22450;DHT22;11392;57.390;-2.468;2023-06-22T03:39:54;12.00;99.90
22450;DHT22;11392;57.390;-2.468;2023-06-22T03:42:21;11.90;99.90
22450;DHT22;11392;57.390;-2.468;2023-06-22T03:44:48;11.90;99.90
22450;DHT22;11392;57.390;-2.468;2023-06-22T03:47:15;11.90;99.90
22450;DHT22;11392;57.390;-2.468;2023-06-22T03:49:42;11.80;99.90
22450;DHT22;11392;57.390;-2.468;2023-06-22T03:52:08;11.80;99.90
22450;DHT22;11392;57.390;-2.468;2023-06-22T03:54:37;11.80;99.90
22450;DHT22;11392;57.390;-2.468;2023-06-22T03:57:04;11.70;99.90
22450;DHT22;11392;57.390;-2.468;2023-06-22T03:59:32;11.70;99.90
22450;DHT22;11392;57.390;-2.468;2023-06-22T04:01:59;11.70;99.90
22450;DHT22;11392;57.390;-2.468;2023-06-22T04:04:26;11.50;99.90
22450;DHT22;11392;57.390;-2.468;2023-06-22T04:06:54;11.50;99.90
22450;DHT22;11392;57.390;-2.468;2023-06-22T04:09:21;11.50;99.90
22450;DHT22;11392;57.390;-2.468;2023-06-22T04:11:48;11.40;99.90
22450;DHT22;11392;57.390;-2.468;2023-06-22T04:14:15;11.50;99.90
22450;DHT22;11392;57.390;-2.468;2023-06-22T04:16:42;11.50;99.90
22450;DHT22;11392;57.390;-2.468;2023-06-22T04:19:09;11.60;99.90
22450;DHT22;11392;57.390;-2.468;2023-06-22T04:21:44;11.70;99.90
22450;DHT22;11392;57.390;-2.468;2023-06-22T04:24:11;11.70;99.90
22450;DHT22;11392;57.390;-2.468;2023-06-22T04:26:38;11.80;99.90
22450;DHT22;11392;57.390;-2.468;2023-06-22T04:29:08;11.80;99.90
22450;DHT22;11392;57.390;-2.468;2023-06-22T04:31:35;11.70;99.90
22450;DHT22;11392;57.390;-2.468;2023-06-22T04:34:06;11.80;99.90
22450;DHT22;11392;57.390;-2.468;2023-06-22T04:36:39;11.80;99.90
22450;DHT22;11392;57.390;-2.468;2023-06-22T04:39:07;11.80;99.90
22450;DHT22;11392;57.390;-2.468;2023-06-22T04:41:37;11.90;99.90
22450;DHT22;11392;57.390;-2.468;2023-06-22T04:44:19;11.90;99.90
22450;DHT22;11392;57.390;-2.468;2023-06-22T04:46:56;11.80;99.90
22450;DHT22;11392;57.390;-2.468;2023-06-22T04:49:29;11.90;99.90
22450;DHT22;11392;57.390;-2.468;2023-06-22T04:52:00;11.80;99.90
22450;DHT22;11392;57.390;-2.468;2023-06-22T04:54:28;11.80;99.90
22450;DHT22;11392;57.390;-2.468;2023-06-22T04:56:55;11.80;99.90
22450;DHT22;11392;57.390;-2.468;2023-06-22T04:59:28;11.90;99.90
22450;DHT22;11392;57.390;-2.468;2023-06-22T05:02:05;11.90;99.90
22450;DHT22;11392;57.390;-2.468;2023-06-22T05:04:32;12.00;99.90
22450;DHT22;11392;57.390;-2.468;2023-06-22T05:07:00;12.20;99.90
22450;DHT22;11392;57.390;-2.468;2023-06-22T05:09:27;12.30;99.90
22450;DHT22;11392;57.390;-2.468;2023-06-22T05:11:55;12.30;99.90
22450;DHT22;11392;57.390;-2.468;2023-06-22T05:14:23;12.40;99.90
22450;DHT22;11392;57.390;-2.468;2023-06-22T05:16:50;12.40;99.90
22450;DHT22;11392;57.390;-2.468;2023-06-22T05:19:18;12.40;99.90
22450;DHT22;11392;57.390;-2.468;2023-06-22T05:21:45;12.40;99.90
22450;DHT22;11392;57.390;-2.468;2023-06-22T05:24:13;12.40;99.90
22450;DHT22;11392;57.390;-2.468;2023-06-22T05:26:40;12.50;99.90
22450;DHT22;11392;57.390;-2.468;2023-06-22T05:29:07;12.50;99.90
22450;DHT22;11392;57.390;-2.468;2023-06-22T05:31:34;12.60;99.90
22450;DHT22;11392;57.390;-2.468;2023-06-22T05:34:01;12.70;99.90
22450;DHT22;11392;57.390;-2.468;2023-06-22T05:36:28;12.80;99.90
22450;DHT22;11392;57.390;-2.468;2023-06-22T05:38:57;12.90;99.90
22450;DHT22;11392;57.390;-2.468;2023-06-22T05:41:25;13.00;99.90
22450;DHT22;11392;57.390;-2.468;2023-06-22T05:43:52;13.00;99.90
22450;DHT22;11392;57.390;-2.468;2023-06-22T05:46:19;13.00;99.90
22450;DHT22;11392;57.390;-2.468;2023-06-22T05:48:46;13.20;99.90
22450;DHT22;11392;57.390;-2.468;2023-06-22T05:51:13;13.20;99.90
22450;DHT22;11392;57.390;-2.468;2023-06-22T05:53:40;13.30;99.90
22450;DHT22;11392;57.390;-2.468;2023-06-22T05:56:07;13.30;99.90
22450;DHT22;11392;57.390;-2.468;2023-06-22T05:58:35;13.40;99.90
22450;DHT22;11392;57.390;-2.468;2023-06-22T06:01:02;13.40;99.90
22450;DHT22;11392;57.390;-2.468;2023-06-22T06:03:29;13.40;99.90
22450;DHT22;11392;57.390;-2.468;2023-06-22T06:05:56;13.60;99.90
22450;DHT22;11392;57.390;-2.468;2023-06-22T06:08:23;13.60;99.90
22450;DHT22;11392;57.390;-2.468;2023-06-22T06:10:50;13.70;99.90
22450;DHT22;11392;57.390;-2.468;2023-06-22T06:13:19;13.70;99.90
22450;DHT22;11392;57.390;-2.468;2023-06-22T06:15:46;13.80;99.90
22450;DHT22;11392;57.390;-2.468;2023-06-22T06:18:14;14.00;99.90
22450;DHT22;11392;57.390;-2.468;2023-06-22T06:20:41;14.10;99.90
22450;DHT22;11392;57.390;-2.468;2023-06-22T06:23:08;14.30;99.90
22450;DHT22;11392;57.390;-2.468;2023-06-22T06:25:35;14.40;99.90
22450;DHT22;11392;57.390;-2.468;2023-06-22T06:28:02;14.60;99.90
22450;DHT22;11392;57.390;-2.468;2023-06-22T06:30:30;14.80;99.90
22450;DHT22;11392;57.390;-2.468;2023-06-22T06:32:57;14.90;99.90
22450;DHT22;11392;57.390;-2.468;2023-06-22T06:35:24;15.00;99.90
22450;DHT22;11392;57.390;-2.468;2023-06-22T06:37:51;15.10;99.90
22450;DHT22;11392;57.390;-2.468;2023-06-22T06:40:18;15.20;99.90
22450;DHT22;11392;57.390;-2.468;2023-06-22T06:42:47;15.40;99.90
22450;DHT22;11392;57.390;-2.468;2023-06-22T06:45:22;15.60;99.90
22450;DHT22;11392;57.390;-2.468;2023-06-22T06:47:51;15.70;99.90
22450;DHT22;11392;57.390;-2.468;2023-06-22T06:50:19;15.90;99.90
22450;DHT22;11392;57.390;-2.468;2023-06-22T06:52:46;16.00;99.90
22450;DHT22;11392;57.390;-2.468;2023-06-22T06:55:13;16.30;99.90
22450;DHT22;11392;57.390;-2.468;2023-06-22T06:57:42;16.50;99.90
22450;DHT22;11392;57.390;-2.468;2023-06-22T07:00:11;16.50;99.90
22450;DHT22;11392;57.390;-2.468;2023-06-22T07:02:42;16.70;99.90
22450;DHT22;11392;57.390;-2.468;2023-06-22T07:05:11;16.90;99.90
22450;DHT22;11392;57.390;-2.468;2023-06-22T07:07:39;17.00;99.90
22450;DHT22;11392;57.390;-2.468;2023-06-22T07:10:06;17.20;99.90
22450;DHT22;11392;57.390;-2.468;2023-06-22T07:12:34;17.20;99.90
22450;DHT22;11392;57.390;-2.468;2023-06-22T07:15:08;17.40;99.90
22450;DHT22;11392;57.390;-2.468;2023-06-22T07:17:36;17.40;99.90
22450;DHT22;11392;57.390;-2.468;2023-06-22T07:20:04;17.50;99.90
22450;DHT22;11392;57.390;-2.468;2023-06-22T07:22:44;17.50;99.90
22450;DHT22;11392;57.390;-2.468;2023-06-22T07:25:14;17.60;99.90
22450;DHT22;11392;57.390;-2.468;2023-06-22T07:27:59;17.50;99.90
22450;DHT22;11392;57.390;-2.468;2023-06-22T07:30:26;17.70;99.90
22450;DHT22;11392;57.390;-2.468;2023-06-22T07:32:54;17.80;99.90
22450;DHT22;11392;57.390;-2.468;2023-06-22T07:35:22;17.70;99.90
22450;DHT22;11392;57.390;-2.468;2023-06-22T07:37:49;17.90;99.90
22450;DHT22;11392;57.390;-2.468;2023-06-22T07:40:16;18.20;99.90
22450;DHT22;11392;57.390;-2.468;2023-06-22T07:42:44;18.40;99.90
22450;DHT22;11392;57.390;-2.468;2023-06-22T07:45:11;18.60;99.90
22450;DHT22;11392;57.390;-2.468;2023-06-22T07:47:38;18.60;99.90
22450;DHT22;11392;57.390;-2.468;2023-06-22T07:50:05;18.60;99.90
22450;DHT22;11392;57.390;-2.468;2023-06-22T07:52:33;18.50;99.90
22450;DHT22;11392;57.390;-2.468;2023-06-22T07:55:00;18.60;99.90
22450;DHT22;11392;57.390;-2.468;2023-06-22T07:57:27;18.70;99.90
22450;DHT22;11392;57.390;-2.468;2023-06-22T08:00:00;18.70;99.90
22450;DHT22;11392;57.390;-2.468;2023-06-22T08:02:27;19.00;99.90
22450;DHT22;11392;57.390;-2.468;2023-06-22T08:04:54;19.20;99.90
22450;DHT22;11392;57.390;-2.468;2023-06-22T08:07:41;19.40;99.90
22450;DHT22;11392;57.390;-2.468;2023-06-22T08:10:11;19.40;99.90
22450;DHT22;11392;57.390;-2.468;2023-06-22T08:12:40;19.60;99.90
22450;DHT22;11392;57.390;-2.468;2023-06-22T08:15:07;19.60;99.90
22450;DHT22;11392;57.390;-2.468;2023-06-22T08:17:36;19.70;99.90
22450;DHT22;11392;57.390;-2.468;2023-06-22T08:20:05;20.10;99.90
22450;DHT22;11392;57.390;-2.468;2023-06-22T08:22:43;20.40;99.90
22450;DHT22;11392;57.390;-2.468;2023-06-22T08:25:11;20.30;99.90
22450;DHT22;11392;57.390;-2.468;2023-06-22T08:27:38;20.30;99.90
22450;DHT22;11392;57.390;-2.468;2023-06-22T08:30:06;19.90;99.90
22450;DHT22;11392;57.390;-2.468;2023-06-22T08:32:34;19.90;99.90
22450;DHT22;11392;57.390;-2.468;2023-06-22T08:35:01;20.20;99.90
22450;DHT22;11392;57.390;-2.468;2023-06-22T08:37:28;20.50;99.90
22450;DHT22;11392;57.390;-2.468;2023-06-22T08:40:06;21.00;99.90
22450;DHT22;11392;57.390;-2.468;2023-06-22T08:42:39;20.60;99.90
22450;DHT22;11392;57.390;-2.468;2023-06-22T08:45:07;20.80;99.90
22450;DHT22;11392;57.390;-2.468;2023-06-22T08:47:34;21.00;99.90
22450;DHT22;11392;57.390;-2.468;2023-06-22T08:50:01;20.70;99.90
22450;DHT22;11392;57.390;-2.468;2023-06-22T08:52:30;21.10;99.90
22450;DHT22;11392;57.390;-2.468;2023-06-22T08:54:57;20.90;99.90
22450;DHT22;11392;57.390;-2.468;2023-06-22T08:57:27;20.90;99.90
22450;DHT22;11392;57.390;-2.468;2023-06-22T08:59:55;20.80;99.90
22450;DHT22;11392;57.390;-2.468;2023-06-22T09:02:26;21.00;99.90
22450;DHT22;11392;57.390;-2.468;2023-06-22T09:04:57;21.00;99.90
22450;DHT22;11392;57.390;-2.468;2023-06-22T09:07:25;21.30;99.90
22450;DHT22;11392;57.390;-2.468;2023-06-22T09:09:53;21.20;99.90
22450;DHT22;11392;57.390;-2.468;2023-06-22T09:12:20;21.60;99.90
22450;DHT22;11392;57.390;-2.468;2023-06-22T09:14:51;21.80;99.90
22450;DHT22;11392;57.390;-2.468;2023-06-22T09:17:18;21.90;99.90
22450;DHT22;11392;57.390;-2.468;2023-06-22T09:19:46;22.00;99.90
22450;DHT22;11392;57.390;-2.468;2023-06-22T09:22:14;22.00;99.90
22450;DHT22;11392;57.390;-2.468;2023-06-22T09:24:41;22.20;99.90
22450;DHT22;11392;57.390;-2.468;2023-06-22T09:27:08;22.60;99.90
22450;DHT22;11392;57.390;-2.468;2023-06-22T09:29:35;22.20;99.90
22450;DHT22;11392;57.390;-2.468;2023-06-22T09:32:02;21.40;99.90
22450;DHT22;11392;57.390;-2.468;2023-06-22T09:34:30;21.60;99.90
22450;DHT22;11392;57.390;-2.468;2023-06-22T09:36:58;22.20;99.90
22450;DHT22;11392;57.390;-2.468;2023-06-22T09:39:27;22.70;99.90
22450;DHT22;11392;57.390;-2.468;2023-06-22T09:41:54;23.40;99.90
22450;DHT22;11392;57.390;-2.468;2023-06-22T09:44:21;24.20;99.90
22450;DHT22;11392;57.390;-2.468;2023-06-22T09:46:48;24.00;99.90
22450;DHT22;11392;57.390;-2.468;2023-06-22T09:49:15;23.20;99.90
22450;DHT22;11392;57.390;-2.468;2023-06-22T09:51:42;22.00;99.90
22450;DHT22;11392;57.390;-2.468;2023-06-22T09:54:09;22.00;99.90
22450;DHT22;11392;57.390;-2.468;2023-06-22T09:56:36;22.30;99.90
22450;DHT22;11392;57.390;-2.468;2023-06-22T09:59:04;22.90;99.90
22450;DHT22;11392;57.390;-2.468;2023-06-22T10:01:44;23.50;99.90
22450;DHT22;11392;57.390;-2.468;2023-06-22T10:04:11;23.80;99.90
22450;DHT22;11392;57.390;-2.468;2023-06-22T10:06:38;23.90;99.90
22450;DHT22;11392;57.390;-2.468;2023-06-22T10:09:07;23.30;99.90
22450;DHT22;11392;57.390;-2.468;2023-06-22T10:11:35;22.10;99.90
22450;DHT22;11392;57.390;-2.468;2023-06-22T10:14:02;21.60;99.90
22450;DHT22;11392;57.390;-2.468;2023-06-22T10:16:31;21.50;99.90
22450;DHT22;11392;57.390;-2.468;2023-06-22T10:18:58;21.70;99.90
22450;DHT22;11392;57.390;-2.468;2023-06-22T10:21:25;22.30;99.90
22450;DHT22;11392;57.390;-2.468;2023-06-22T10:23:54;22.80;99.90
22450;DHT22;11392;57.390;-2.468;2023-06-22T10:26:22;23.00;99.90
22450;DHT22;11392;57.390;-2.468;2023-06-22T10:28:50;23.40;99.90
22450;DHT22;11392;57.390;-2.468;2023-06-22T10:31:26;23.80;99.90
22450;DHT22;11392;57.390;-2.468;2023-06-22T10:33:54;23.90;99.90
22450;DHT22;11392;57.390;-2.468;2023-06-22T10:36:22;24.00;99.90
22450;DHT22;11392;57.390;-2.468;2023-06-22T10:38:49;24.00;99.90
22450;DHT22;11392;57.390;-2.468;2023-06-22T10:41:16;24.50;99.90
22450;DHT22;11392;57.390;-2.468;2023-06-22T10:43:44;25.20;99.90
22450;DHT22;11392;57.390;-2.468;2023-06-22T10:46:11;25.70;99.90
22450;DHT22;11392;57.390;-2.468;2023-06-22T10:48:38;25.90;99.90
22450;DHT22;11392;57.390;-2.468;2023-06-22T10:51:05;25.40;99.90
22450;DHT22;11392;57.390;-2.468;2023-06-22T10:53:32;25.10;99.90
22450;DHT22;11392;57.390;-2.468;2023-06-22T10:55:59;24.80;99.90
22450;DHT22;11392;57.390;-2.468;2023-06-22T10:58:26;24.40;99.90
22450;DHT22;11392;57.390;-2.468;2023-06-22T11:00:53;23.60;99.90
22450;DHT22;11392;57.390;-2.468;2023-06-22T11:03:20;22.90;99.90
22450;DHT22;11392;57.390;-2.468;2023-06-22T11:05:47;22.90;99.90
22450;DHT22;11392;57.390;-2.468;2023-06-22T11:08:14;22.60;99.90
22450;DHT22;11392;57.390;-2.468;2023-06-22T11:10:43;22.10;99.90
22450;DHT22;11392;57.390;-2.468;2023-06-22T11:13:10;22.20;99.90
22450;DHT22;11392;57.390;-2.468;2023-06-22T11:15:39;22.40;99.90
22450;DHT22;11392;57.390;-2.468;2023-06-22T11:18:06;22.50;99.90
22450;DHT22;11392;57.390;-2.468;2023-06-22T11:20:34;22.50;99.90
22450;DHT22;11392;57.390;-2.468;2023-06-22T11:23:05;22.20;99.90
22450;DHT22;11392;57.390;-2.468;2023-06-22T11:25:35;21.90;99.90
22450;DHT22;11392;57.390;-2.468;2023-06-22T11:28:05;22.00;99.90
22450;DHT22;11392;57.390;-2.468;2023-06-22T11:30:31;22.30;99.90
22450;DHT22;11392;57.390;-2.468;2023-06-22T11:32:59;22.30;99.90
22450;DHT22;11392;57.390;-2.468;2023-06-22T11:35:27;22.80;99.90
22450;DHT22;11392;57.390;-2.468;2023-06-22T11:37:54;23.10;99.90
22450;DHT22;11392;57.390;-2.468;2023-06-22T11:40:22;23.00;99.90
22450;DHT22;11392;57.390;-2.468;2023-06-22T11:42:50;23.20;99.90
22450;DHT22;11392;57.390;-2.468;2023-06-22T11:45:17;23.20;99.90
22450;DHT22;11392;57.390;-2.468;2023-06-22T11:47:44;22.90;99.90
22450;DHT22;11392;57.390;-2.468;2023-06-22T11:50:11;22.70;99.90
22450;DHT22;11392;57.390;-2.468;2023-06-22T11:52:38;22.90;99.90
22450;DHT22;11392;57.390;-2.468;2023-06-22T11:55:06;23.20;99.90
22450;DHT22;11392;57.390;-2.468;2023-06-22T11:57:35;23.20;99.90
22450;DHT22;11392;57.390;-2.468;2023-06-22T12:00:03;22.80;99.90
22450;DHT22;11392;57.390;-2.468;2023-06-22T12:02:45;22.80;99.90
22450;DHT22;11392;57.390;-2.468;2023-06-22T12:05:12;22.70;99.90
22450;DHT22;11392;57.390;-2.468;2023-06-22T12:07:39;22.20;99.90
22450;DHT22;11392;57.390;-2.468;2023-06-22T12:10:06;22.00;99.90
22450;DHT22;11392;57.390;-2.468;2023-06-22T12:12:33;22.00;99.90
22450;DHT22;11392;57.390;-2.468;2023-06-22T12:15:00;22.10;99.90
22450;DHT22;11392;57.390;-2.468;2023-06-22T12:17:30;22.00;99.90
22450;DHT22;11392;57.390;-2.468;2023-06-22T12:19:58;22.10;99.90
22450;DHT22;11392;57.390;-2.468;2023-06-22T12:22:25;22.60;99.90
22450;DHT22;11392;57.390;-2.468;2023-06-22T12:24:52;23.80;99.90
22450;DHT22;11392;57.390;-2.468;2023-06-22T12:27:19;24.60;99.90
22450;DHT22;11392;57.390;-2.468;2023-06-22T12:29:46;25.40;99.90
22450;DHT22;11392;57.390;-2.468;2023-06-22T12:32:14;25.80;99.90
22450;DHT22;11392;57.390;-2.468;2023-06-22T12:34:42;25.40;99.90
22450;DHT22;11392;57.390;-2.468;2023-06-22T12:37:10;25.20;99.90
22450;DHT22;11392;57.390;-2.468;2023-06-22T12:39:37;24.80;99.90
22450;DHT22;11392;57.390;-2.468;2023-06-22T12:42:04;24.30;99.90
22450;DHT22;11392;57.390;-2.468;2023-06-22T12:44:31;24.10;99.90
22450;DHT22;11392;57.390;-2.468;2023-06-22T12:46:58;24.10;99.90
22450;DHT22;11392;57.390;-2.468;2023-06-22T12:49:25;23.80;99.90
22450;DHT22;11392;57.390;-2.468;2023-06-22T12:51:52;24.00;99.90
22450;DHT22;11392;57.390;-2.468;2023-06-22T12:54:19;24.00;99.90
22450;DHT22;11392;57.390;-2.468;2023-06-22T12:56:46;23.90;99.90
22450;DHT22;11392;57.390;-2.468;2023-06-22T12:59:13;23.90;99.90
22450;DHT22;11392;57.390;-2.468;2023-06-22T13:01:40;24.00;99.90
22450;DHT22;11392;57.390;-2.468;2023-06-22T13:04:07;24.10;99.90
22450;DHT22;11392;57.390;-2.468;2023-06-22T13:06:34;24.20;99.90
22450;DHT22;11392;57.390;-2.468;2023-06-22T13:09:01;24.00;99.90
22450;DHT22;11392;57.390;-2.468;2023-06-22T13:11:31;23.90;99.90
22450;DHT22;11392;57.390;-2.468;2023-06-22T13:13:58;23.70;99.90
22450;DHT22;11392;57.390;-2.468;2023-06-22T13:16:25;23.70;99.90
22450;DHT22;11392;57.390;-2.468;2023-06-22T13:18:52;23.50;99.90
22450;DHT22;11392;57.390;-2.468;2023-06-22T13:21:19;23.80;99.90
22450;DHT22;11392;57.390;-2.468;2023-06-22T13:23:46;24.00;99.90
22450;DHT22;11392;57.390;-2.468;2023-06-22T13:26:13;23.80;99.90
22450;DHT22;11392;57.390;-2.468;2023-06-22T13:28:40;23.90;99.90
22450;DHT22;11392;57.390;-2.468;2023-06-22T13:31:07;24.00;99.90
22450;DHT22;11392;57.390;-2.468;2023-06-22T13:33:37;24.00;99.90
22450;DHT22;11392;57.390;-2.468;2023-06-22T13:36:05;23.70;99.90
22450;DHT22;11392;57.390;-2.468;2023-06-22T13:38:34;23.60;99.90
22450;DHT22;11392;57.390;-2.468;2023-06-22T13:41:05;23.70;99.90
22450;DHT22;11392;57.390;-2.468;2023-06-22T13:43:32;24.10;99.90
22450;DHT22;11392;57.390;-2.468;2023-06-22T13:45:59;24.50;99.90
22450;DHT22;11392;57.390;-2.468;2023-06-22T13:48:27;24.80;99.90
22450;DHT22;11392;57.390;-2.468;2023-06-22T13:50:55;24.60;99.90
22450;DHT22;11392;57.390;-2.468;2023-06-22T13:53:24;23.80;99.90
22450;DHT22;11392;57.390;-2.468;2023-06-22T13:55:51;23.10;99.90
22450;DHT22;11392;57.390;-2.468;2023-06-22T13:58:18;23.00;99.90
22450;DHT22;11392;57.390;-2.468;2023-06-22T14:00:46;23.00;99.90
22450;DHT22;11392;57.390;-2.468;2023-06-22T14:03:14;22.60;99.90
22450;DHT22;11392;57.390;-2.468;2023-06-22T14:05:43;22.30;99.90
22450;DHT22;11392;57.390;-2.468;2023-06-22T14:08:11;22.10;99.90
22450;DHT22;11392;57.390;-2.468;2023-06-22T14:10:58;22.50;99.90
22450;DHT22;11392;57.390;-2.468;2023-06-22T14:13:25;22.60;99.90
22450;DHT22;11392;57.390;-2.468;2023-06-22T14:15:52;22.40;99.90
22450;DHT22;11392;57.390;-2.468;2023-06-22T14:18:20;22.20;99.90
22450;DHT22;11392;57.390;-2.468;2023-06-22T14:20:49;22.10;99.90
22450;DHT22;11392;57.390;-2.468;2023-06-22T14:23:16;22.30;99.90
22450;DHT22;11392;57.390;-2.468;2023-06-22T14:25:43;22.30;99.90
22450;DHT22;11392;57.390;-2.468;2023-06-22T14:28:10;22.20;99.90
22450;DHT22;11392;57.390;-2.468;2023-06-22T14:30:37;21.90;99.90
22450;DHT22;11392;57.390;-2.468;2023-06-22T14:33:04;21.50;99.90
22450;DHT22;11392;57.390;-2.468;2023-06-22T14:35:31;21.20;99.90
22450;DHT22;11392;57.390;-2.468;2023-06-22T14:37:58;21.00;99.90
22450;DHT22;11392;57.390;-2.468;2023-06-22T14:40:25;20.90;99.90
22450;DHT22;11392;57.390;-2.468;2023-06-22T14:42:52;20.70;99.90
22450;DHT22;11392;57.390;-2.468;2023-06-22T14:45:19;20.60;99.90
22450;DHT22;11392;57.390;-2.468;2023-06-22T14:47:46;20.40;99.90
22450;DHT22;11392;57.390;-2.468;2023-06-22T14:50:14;20.40;99.90
22450;DHT22;11392;57.390;-2.468;2023-06-22T14:52:42;20.50;99.90
22450;DHT22;11392;57.390;-2.468;2023-06-22T14:55:09;20.60;99.90
22450;DHT22;11392;57.390;-2.468;2023-06-22T14:57:36;20.90;99.90
22450;DHT22;11392;57.390;-2.468;2023-06-22T15:00:04;21.30;99.90
22450;DHT22;11392;57.390;-2.468;2023-06-22T15:02:33;21.70;99.90
22450;DHT22;11392;57.390;-2.468;2023-06-22T15:05:00;22.10;99.90
22450;DHT22;11392;57.390;-2.468;2023-06-22T15:07:27;22.10;99.90
22450;DHT22;11392;57.390;-2.468;2023-06-22T15:09:54;21.70;99.90
22450;DHT22;11392;57.390;-2.468;2023-06-22T15:12:21;21.80;99.90
22450;DHT22;11392;57.390;-2.468;2023-06-22T15:14:48;21.30;99.90
22450;DHT22;11392;57.390;-2.468;2023-06-22T15:17:15;21.20;99.90
22450;DHT22;11392;57.390;-2.468;2023-06-22T15:19:42;21.10;99.90
22450;DHT22;11392;57.390;-2.468;2023-06-22T15:22:09;21.00;99.90